Weather at Sentell Ranch Airport [CLOSED]

Public forecast

Using degrees Fahrenheit for public forecast. Weather courtesy of forecast.io.

Closest aviation weather report (METAR) to Sentell Ranch Airport

Closest report is Sonora Municipal Airport, 20.0 nm (37.1 km) WNW.

2024/04/16 17:35 (retrieved 21 minutes ago)

KSOA 161735Z AUTO 00000KT 10SM CLR 26/M05 A2998 RMK AO2

Closest aviation forecast (TAF) to Sentell Ranch Airport

Closest forecast is Sonora Municipal Airport, 20.0 nm (37.1 km) WNW.

2024/04/16 12:22 (retrieved 6 hours ago)

TAF KSOA 161120Z 1612/1712 20005KT 6SM BR SCT008 FM161400 30010KT P6SM SCT250 FM161700 25010KT P6SM FEW250